Time;durP1;ratioP1;P1;durP2;ratioP2;P2;SDS_P1;SDS_P2;PMS_P1;PMS_P2;Temp;Humidity;BMP_temperature;BMP_pressure;BME280_temperature;BME280_humidity;BME280_pressure;Samples;Min_cycle;Max_cycle;Signal;HPM_P1;HPM_P2
2023/08/11 00:00:37;;;;;;;50.65;21.85;;;;;;;19.29;74.52;100341.13;4925895;29;19922;-88
2023/08/11 00:03:07;;;;;;;57.35;24.30;;;;;;;18.94;75.35;100289.72;4924853;29;20059;-89
2023/08/11 00:05:37;;;;;;;58.55;24.77;;;;;;;19.04;75.53;100301.47;4931888;29;20050;-88
2023/08/11 00:08:05;;;;;;;69.95;25.63;;;;;;;18.91;76.10;100281.31;4905525;29;20040;-89
2023/08/11 00:10:33;;;;;;;63.42;26.77;;;;;;;19.23;75.67;100340.53;4896941;29;20132;-89
2023/08/11 00:12:59;;;;;;;63.15;26.25;;;;;;;19.18;76.54;100336.03;4907487;29;20083;-89
2023/08/11 00:15:28;;;;;;;65.63;27.05;;;;;;;19.21;75.80;100334.53;4909718;29;20232;-89
2023/08/11 00:18:01;;;;;;;63.42;26.42;;;;;;;18.85;76.13;100277.94;4925634;29;20048;-88
2023/08/11 00:20:28;;;;;;;65.32;27.02;;;;;;;19.19;76.11;100332.09;4919001;29;20046;-88
2023/08/11 00:22:54;;;;;;;67.90;28.42;;;;;;;19.07;75.96;100311.88;4942320;29;20040;-89
2023/08/11 00:25:21;;;;;;;62.50;26.60;;;;;;;18.96;76.46;100300.44;4910540;29;20039;-88
2023/08/11 00:27:48;;;;;;;56.55;26.08;;;;;;;18.78;76.39;100281.28;4920305;29;20133;-90
2023/08/11 00:30:14;;;;;;;67.78;25.23;;;;;;;19.03;76.91;100322.84;4926079;29;20036;-89
2023/08/11 00:32:41;;;;;;;55.35;26.75;;;;;;;18.78;77.47;100274.94;4897587;29;20047;-88
2023/08/11 00:35:07;;;;;;;59.50;26.55;;;;;;;18.85;76.88;100305.63;4925874;29;20055;-89
2023/08/11 00:37:34;;;;;;;66.50;26.60;;;;;;;19.02;77.52;100344.22;4908169;29;20661;-88
2023/08/11 00:40:03;;;;;;;67.82;30.55;;;;;;;18.61;78.90;100266.78;4890044;29;20125;-90
2023/08/11 00:42:29;;;;;;;65.53;29.55;;;;;;;18.85;78.59;100311.19;4903597;29;20040;-89
2023/08/11 00:44:58;;;;;;;77.40;32.13;;;;;;;18.81;79.19;100303.88;4891543;29;20098;-89
2023/08/11 00:47:24;;;;;;;75.30;34.85;;;;;;;18.98;79.50;100340.53;4899573;29;20375;-90
2023/08/11 00:49:50;;;;;;;70.63;31.65;;;;;;;18.70;80.19;100281.34;4910210;29;20043;-91
2023/08/11 00:52:17;;;;;;;67.37;33.27;;;;;;;18.76;80.05;100288.31;4926773;29;20043;-89
2023/08/11 00:54:45;;;;;;;67.53;33.13;;;;;;;19.17;79.74;100348.28;4920845;29;20044;-90
2023/08/11 00:57:13;;;;;;;;;;;;;;;19.17;79.18;100347.44;4924985;29;20280;-86
2023/08/11 00:59:39;;;;;;;73.32;32.55;;;;;;;18.81;79.27;100304.72;4915216;29;19923;-90
2023/08/11 01:02:06;;;;;;;66.65;32.22;;;;;;;18.71;79.73;100294.88;4876794;29;20546;-89
2023/08/11 01:04:33;;;;;;;71.20;32.92;;;;;;;18.75;80.61;100300.56;4896385;29;20119;-90
2023/08/11 01:07:25;;;;;;;83.63;33.13;;;;;;;19.09;80.31;100359.47;4877332;29;20044;-90
2023/08/11 01:10:08;;;;;;;69.68;32.78;;;;;;;19.01;79.81;100367.56;4898476;29;20122;-89
2023/08/11 01:12:56;;;;;;;77.25;33.35;;;;;;;18.52;79.94;100308.44;4894420;29;20130;-90
2023/08/11 01:15:22;;;;;;;67.70;32.42;;;;;;;18.84;80.51;100350.28;4907795;29;20048;-89
2023/08/11 01:17:49;;;;;;;53.37;29.50;;;;;;;18.51;80.00;100304.84;4926956;29;20055;-88
2023/08/11 01:20:16;;;;;;;;;;;;;;;18.81;79.57;100346.28;4924833;29;20039;-88
2023/08/11 01:22:47;;;;;;;86.88;31.27;;;;;;;18.44;79.71;100289.94;4910603;29;19977;-91
2023/08/11 01:25:14;;;;;;;68.38;33.15;;;;;;;18.26;80.07;100270.75;4895769;29;20100;-90
2023/08/11 01:27:44;;;;;;;;;;;;;;;18.72;80.86;100329.75;4909961;29;20164;-88
2023/08/11 01:30:15;;;;;;;73.88;29.20;;;;;;;18.61;80.60;100324.94;4907752;29;19923;-90
2023/08/11 01:32:41;;;;;;;79.40;34.87;;;;;;;18.51;82.43;100295.75;4923841;29;20054;-90
2023/08/11 01:35:09;;;;;;;76.00;33.77;;;;;;;18.36;81.84;100274.25;4875413;29;20044;-90
2023/08/11 01:37:35;;;;;;;75.60;34.60;;;;;;;18.38;81.72;100281.06;4906281;29;20055;-89
2023/08/11 01:40:01;;;;;;;67.68;33.78;;;;;;;18.44;80.97;100288.00;4907402;29;20074;-90
2023/08/11 01:42:27;;;;;;;73.07;35.63;;;;;;;18.35;81.24;100278.97;4887738;29;20447;-90
2023/08/11 01:44:54;;;;;;;67.00;33.87;;;;;;;18.45;80.89;100303.44;4891828;29;20054;-89
2023/08/11 01:47:20;;;;;;;70.88;31.80;;;;;;;18.54;80.81;100325.50;4894914;29;20059;-89
2023/08/11 01:49:47;;;;;;;66.97;30.48;;;;;;;18.45;80.76;100311.75;4920904;29;20605;-89
2023/08/11 01:52:14;;;;;;;65.07;27.55;;;;;;;18.27;80.85;100266.81;4906198;29;20051;-89
2023/08/11 01:54:43;;;;;;;64.60;30.15;;;;;;;18.27;80.79;100272.34;4901331;29;20055;-88
2023/08/11 01:57:09;;;;;;;55.25;27.25;;;;;;;18.25;80.94;100273.88;4925880;29;20059;-89
2023/08/11 01:59:35;;;;;;;54.08;27.20;;;;;;;18.47;80.71;100308.63;4906763;29;20521;-89
2023/08/11 02:02:02;;;;;;;82.47;29.20;;;;;;;18.24;81.10;100267.50;4907917;29;20148;-89
2023/08/11 02:04:28;;;;;;;68.38;26.85;;;;;;;18.28;81.40;100278.72;4925705;29;20047;-89
2023/08/11 02:06:55;;;;;;;71.68;30.15;;;;;;;18.27;82.07;100279.84;4919533;29;20503;-89
2023/08/11 02:09:21;;;;;;;67.38;30.70;;;;;;;18.52;83.22;100309.25;4899239;29;20044;-93
2023/08/11 02:11:47;;;;;;;64.10;30.47;;;;;;;18.21;83.82;100248.84;4884224;29;20047;-90
2023/08/11 02:14:13;;;;;;;66.63;31.10;;;;;;;18.61;83.95;100302.78;4899820;29;20299;-89
2023/08/11 02:16:39;;;;;;;68.27;29.77;;;;;;;18.51;84.04;100295.75;4902902;29;20103;-90
2023/08/11 02:19:25;;;;;;;67.57;29.02;;;;;;;18.48;84.78;100286.16;4897370;29;20055;-92
2023/08/11 02:21:55;;;;;;;75.22;28.55;;;;;;;18.67;85.12;100309.72;4907509;29;20036;-92
2023/08/11 02:24:20;;;;;;;59.45;28.55;;;;;;;18.55;85.59;100286.41;4918483;29;20046;-90
2023/08/11 02:26:47;;;;;;;56.67;28.37;;;;;;;18.68;85.92;100303.84;4887149;29;20036;-89
2023/08/11 02:29:13;;;;;;;61.97;28.83;;;;;;;18.58;85.70;100276.59;4896184;29;20040;-89
2023/08/11 02:31:39;;;;;;;60.13;29.02;;;;;;;18.62;85.55;100287.81;4913917;29;20071;-90
2023/08/11 02:34:05;;;;;;;62.33;30.02;;;;;;;18.51;85.26;100282.72;4905629;29;20040;-89
2023/08/11 02:36:32;;;;;;;67.82;31.38;;;;;;;18.50;85.30;100283.03;4915688;29;20080;-91
2023/08/11 02:38:58;;;;;;;66.30;33.97;;;;;;;18.36;85.37;100249.31;4900892;29;20065;-89
2023/08/11 02:41:25;;;;;;;64.47;33.57;;;;;;;18.51;85.00;100266.09;4921696;29;20616;-89
2023/08/11 02:43:52;;;;;;;79.65;35.03;;;;;;;18.73;85.12;100280.69;4930055;29;20062;-89
2023/08/11 02:46:20;;;;;;;68.28;33.53;;;;;;;18.69;85.23;100249.25;4893603;29;20143;-90
2023/08/11 02:48:46;;;;;;;64.03;33.87;;;;;;;18.88;85.32;100260.63;4893375;29;20060;-91
2023/08/11 02:51:12;;;;;;;69.07;34.00;;;;;;;18.98;85.23;100259.34;4918163;29;20079;-90
2023/08/11 02:53:38;;;;;;;74.25;31.45;;;;;;;18.66;85.45;100200.09;4923202;29;20067;-91
2023/08/11 02:56:07;;;;;;;64.90;30.95;;;;;;;18.76;86.04;100233.72;4897169;29;20040;-89
2023/08/11 02:58:35;;;;;;;62.75;28.45;;;;;;;18.75;86.20;100229.34;4900720;29;20103;-91
2023/08/11 03:01:03;;;;;;;57.42;26.63;;;;;;;19.00;85.86;100263.38;4901531;29;20047;-89
2023/08/11 03:03:29;;;;;;;61.35;28.20;;;;;;;18.83;86.07;100226.78;4899820;29;20131;-90
2023/08/11 03:05:56;;;;;;;52.63;27.27;;;;;;;19.11;86.09;100276.78;4917373;29;20107;-89
2023/08/11 03:08:24;;;;;;;50.38;27.83;;;;;;;18.98;86.01;100249.06;4895264;29;20073;-89
2023/08/11 03:10:51;;;;;;;50.60;28.65;;;;;;;19.01;85.99;100251.16;4909892;29;20060;-89
2023/08/11 03:13:17;;;;;;;64.93;30.80;;;;;;;19.00;86.47;100259.81;4895302;29;20044;-88
2023/08/11 03:15:44;;;;;;;53.45;29.55;;;;;;;19.19;86.26;100286.94;4923805;29;20826;-89
2023/08/11 03:18:10;;;;;;;57.80;32.60;;;;;;;19.39;85.84;100297.09;4882324;29;20064;-90
2023/08/11 03:20:38;;;;;;;63.28;31.05;;;;;;;19.32;85.91;100279.44;4911941;29;20056;-90
2023/08/11 03:23:04;;;;;;;63.97;30.52;;;;;;;19.21;86.30;100251.38;4904306;29;20080;-90
2023/08/11 03:25:31;;;;;;;62.15;34.28;;;;;;;18.90;85.92;100207.63;4910355;29;20044;-89
2023/08/11 03:27:57;;;;;;;56.28;32.42;;;;;;;19.28;85.82;100271.00;4896471;29;20070;-89
2023/08/11 03:30:26;;;;;;;64.50;34.92;;;;;;;19.14;85.76;100245.59;4910313;29;20498;-89
2023/08/11 03:32:54;;;;;;;71.15;34.58;;;;;;;19.12;85.63;100237.63;4919734;29;20094;-90
2023/08/11 03:35:34;;;;;;;61.13;33.35;;;;;;;19.19;86.20;100246.16;4935483;29;20054;-91
2023/08/11 03:38:00;;;;;;;74.88;33.13;;;;;;;19.24;85.57;100242.38;4907291;29;20063;-90
2023/08/11 03:40:26;;;;;;;112.75;34.78;;;;;;;19.56;85.52;100284.13;4916473;29;20036;-89
2023/08/11 03:42:54;;;;;;;53.42;31.15;;;;;;;19.27;84.99;100225.03;4918746;29;20574;-91
2023/08/11 03:45:20;;;;;;;57.60;29.33;;;;;;;19.41;84.64;100233.78;4917289;29;20139;-91
2023/08/11 03:47:47;;;;;;;49.17;30.02;;;;;;;19.38;84.53;100228.94;4914832;29;20040;-91
2023/08/11 03:50:20;;;;;;;59.72;30.10;;;;;;;19.62;84.78;100266.88;4948968;29;20058;-90
2023/08/11 03:52:47;;;;;;;65.50;29.48;;;;;;;19.17;85.01;100183.91;4933769;29;20075;-90
2023/08/11 03:55:17;;;;;;;62.70;29.67;;;;;;;19.28;85.15;100190.59;4949601;29;20634;-91
2023/08/11 03:57:45;;;;;;;52.28;28.05;;;;;;;19.41;85.20;100189.41;4934190;29;20506;-91
2023/08/11 04:00:15;;;;;;;60.88;27.58;;;;;;;19.57;84.93;100208.91;4900295;29;20063;-90
2023/08/11 04:02:44;;;;;;;;;;;;;;;19.78;84.89;100247.56;4913978;29;20071;-91
2023/08/11 04:05:14;;;;;;;60.50;26.15;;;;;;;19.35;85.00;100170.59;4923119;29;19923;-90
2023/08/11 04:07:41;;;;;;;59.45;26.02;;;;;;;19.46;84.06;100183.59;4914139;29;20043;-89
2023/08/11 04:10:10;;;;;;;42.78;25.42;;;;;;;19.83;84.59;100236.22;4894143;29;20518;-90
2023/08/11 04:12:36;;;;;;;55.30;28.02;;;;;;;19.72;84.24;100221.22;4899424;29;20040;-88
2023/08/11 04:15:05;;;;;;;46.50;28.95;;;;;;;19.54;83.75;100192.16;4900930;29;20052;-91
2023/08/11 04:17:33;;;;;;;47.58;27.77;;;;;;;19.86;83.40;100243.84;4888652;29;20120;-89
2023/08/11 04:20:00;;;;;;;59.05;28.30;;;;;;;19.74;83.37;100230.03;4921963;29;20135;-91
2023/08/11 04:22:32;;;;;;;57.22;28.88;;;;;;;19.95;82.98;100261.16;4918050;29;20068;-89
2023/08/11 04:25:00;;;;;;;58.25;29.63;;;;;;;20.16;82.54;100271.22;4926802;29;20044;-90
2023/08/11 04:27:29;;;;;;;68.43;28.38;;;;;;;19.89;82.33;100204.28;4914948;29;20024;-89
2023/08/11 04:29:55;;;;;;;;;;;;;;;20.30;82.26;100245.84;4889697;29;20035;-88
2023/08/11 04:32:25;;;;;;;53.38;27.45;;;;;;;20.23;81.68;100218.69;4899439;29;19930;-91
2023/08/11 04:34:54;;;;;;;50.28;26.15;;;;;;;20.10;81.73;100181.88;4917814;29;20171;-91
2023/08/11 04:37:21;;;;;;;47.97;24.20;;;;;;;20.31;80.94;100191.91;4897613;29;20036;-90
2023/08/11 04:39:47;;;;;;;43.72;22.05;;;;;;;20.57;80.45;100219.19;4896895;29;20510;-90
2023/08/11 04:42:14;;;;;;;41.45;19.83;;;;;;;20.52;80.61;100222.22;4883777;29;20056;-92
2023/08/11 04:44:40;;;;;;;47.00;20.15;;;;;;;20.46;79.85;100206.97;4922870;29;20056;-91
2023/08/11 04:47:09;;;;;;;48.33;18.53;;;;;;;20.44;79.56;100209.31;4915645;29;20050;-91
2023/08/11 04:49:39;;;;;;;38.20;16.80;;;;;;;20.48;79.44;100237.97;4915610;29;20016;-91
2023/08/11 04:52:08;;;;;;;41.83;16.77;;;;;;;20.62;79.57;100264.16;4909742;29;20044;-88
2023/08/11 04:54:36;;;;;;;32.47;17.35;;;;;;;20.38;80.03;100229.00;4911187;29;20075;-94
2023/08/11 04:57:02;;;;;;;34.45;16.77;;;;;;;20.42;79.77;100232.66;4873072;29;20055;-91
2023/08/11 04:59:29;;;;;;;51.05;18.85;;;;;;;20.57;79.90;100239.44;4893365;29;20067;-91
2023/08/11 05:01:55;;;;;;;43.70;17.25;;;;;;;20.75;80.13;100255.75;4903815;29;20048;-91
2023/08/11 05:04:21;;;;;;;;;;;;;;;20.84;80.63;100284.97;4919198;29;20123;-91
2023/08/11 05:06:47;;;;;;;32.50;15.00;;;;;;;20.29;82.19;100211.69;4911740;29;19922;-90
2023/08/11 05:09:13;;;;;;;34.13;15.87;;;;;;;20.44;82.80;100251.78;4902577;29;20072;-89
2023/08/11 05:11:40;;;;;;;28.57;14.47;;;;;;;20.56;82.84;100276.75;4926865;29;20070;-89
2023/08/11 05:14:06;;;;;;;40.03;15.77;;;;;;;20.38;83.10;100244.84;4893044;29;20080;-89
2023/08/11 05:16:32;;;;;;;25.00;14.27;;;;;;;20.59;83.12;100275.19;4932244;29;20036;-89
2023/08/11 05:18:58;;;;;;;28.77;13.23;;;;;;;20.75;82.54;100300.22;4913933;29;20184;-88
2023/08/11 05:21:24;;;;;;;34.50;13.52;;;;;;;20.64;82.72;100283.28;4910323;29;20043;-88
2023/08/11 05:23:51;;;;;;;21.20;13.50;;;;;;;20.56;83.21;100275.91;4891305;29;20135;-88
2023/08/11 05:26:27;;;;;;;24.27;13.77;;;;;;;20.41;83.23;100235.81;4923032;29;20387;-88
2023/08/11 05:28:53;;;;;;;30.67;14.02;;;;;;;20.74;83.03;100268.84;4900205;29;20051;-89
2023/08/11 05:31:19;;;;;;;;;;;;;;;20.95;81.84;100299.13;4904752;29;20036;-91
2023/08/11 05:34:11;;;;;;;;;;;;;;;21.00;81.39;100296.09;4924517;29;19930;-90
2023/08/11 05:36:38;;;;;;;27.95;14.02;;;;;;;20.73;81.02;100236.69;4938277;29;19923;-91
2023/08/11 05:39:06;;;;;;;21.87;12.17;;;;;;;20.93;80.93;100257.00;4934231;29;20095;-88
2023/08/11 05:41:36;;;;;;;20.38;12.23;;;;;;;20.83;80.03;100225.00;4903800;29;20036;-89
2023/08/11 05:44:03;;;;;;;22.45;13.30;;;;;;;21.06;79.05;100227.94;4939611;29;20093;-91
2023/08/11 05:46:34;;;;;;;20.00;11.70;;;;;;;21.52;78.53;100264.38;4918728;29;20051;-87
2023/08/11 05:49:00;;;;;;;17.60;11.15;;;;;;;21.39;77.99;100217.56;4927452;29;20040;-89
2023/08/11 05:51:26;;;;;;;20.38;12.55;;;;;;;21.87;77.40;100249.59;4886729;29;20052;-90
2023/08/11 05:54:01;;;;;;;44.85;14.32;;;;;;;22.09;75.95;100244.47;4886209;29;20127;-91
2023/08/11 05:56:27;;;;;;;26.27;12.47;;;;;;;22.03;74.88;100200.19;4905023;29;20047;-95
2023/08/11 05:58:53;;;;;;;31.75;14.43;;;;;;;21.89;74.97;100191.59;4890721;29;20054;-95
2023/08/11 06:01:21;;;;;;;26.35;13.70;;;;;;;22.18;75.88;100247.84;4891402;29;20051;-89
2023/08/11 06:03:47;;;;;;;34.97;14.00;;;;;;;22.07;76.58;100250.38;4888337;29;20043;-91
2023/08/11 06:06:13;;;;;;;28.45;14.23;;;;;;;21.77;77.20;100227.91;4896418;29;20052;-92
2023/08/11 06:08:39;;;;;;;23.85;14.40;;;;;;;21.61;77.03;100216.03;4932987;29;20100;-91
2023/08/11 06:11:05;;;;;;;36.92;14.57;;;;;;;21.71;76.87;100224.63;4915770;29;20088;-93
2023/08/11 06:13:32;;;;;;;29.13;13.30;;;;;;;21.88;77.44;100256.75;4931341;29;20044;-89
2023/08/11 06:16:11;;;;;;;32.92;14.98;;;;;;;21.71;77.70;100219.03;4922249;29;20029;-88
2023/08/11 06:18:38;;;;;;;29.13;14.48;;;;;;;21.62;76.83;100226.81;4925444;29;20055;-91
2023/08/11 06:21:17;;;;;;;28.88;15.10;;;;;;;21.72;77.29;100217.91;4942080;29;20043;-92
2023/08/11 06:23:48;;;;;;;30.15;15.75;;;;;;;21.88;76.65;100237.28;4929508;29;20042;-93
2023/08/11 06:26:15;;;;;;;34.22;16.10;;;;;;;21.49;76.27;100192.78;4924259;29;20035;-92
2023/08/11 06:28:41;;;;;;;32.38;15.63;;;;;;;21.95;76.78;100256.09;4923321;29;20134;-88
2023/08/11 06:31:09;;;;;;;34.35;16.92;;;;;;;21.46;76.55;100181.56;4916174;29;20071;-88
2023/08/11 06:33:36;;;;;;;43.58;15.93;;;;;;;21.73;76.82;100232.63;4926231;29;20048;-92
2023/08/11 06:36:02;;;;;;;37.65;15.40;;;;;;;21.46;77.44;100195.47;4955744;28;20044;-89
2023/08/11 06:38:35;;;;;;;26.90;15.73;;;;;;;21.79;78.06;100247.84;4916602;29;20145;-90
2023/08/11 06:41:03;;;;;;;33.80;17.65;;;;;;;21.72;79.30;100234.59;4917017;29;20703;-91
2023/08/11 06:46:24;;;;;;;29.88;16.45;;;;;;;21.58;77.93;100209.22;4901765;29;20085;-89
2023/08/11 06:48:52;;;;;;;32.60;16.33;;;;;;;21.92;79.05;100252.09;4883341;29;20078;-89
2023/08/11 06:51:19;;;;;;;31.90;16.40;;;;;;;21.56;77.19;100183.75;4868067;29;20032;-88
2023/08/11 06:53:47;;;;;;;30.92;15.65;;;;;;;21.65;76.71;100195.47;4884856;29;20053;-89
2023/08/11 06:56:14;;;;;;;24.75;15.20;;;;;;;21.85;77.82;100217.72;4884714;29;20047;-89
2023/08/11 06:58:40;;;;;;;28.10;15.88;;;;;;;21.92;76.17;100212.28;4897177;29;20045;-88
2023/08/11 07:01:07;;;;;;;55.88;16.10;;;;;;;22.11;75.65;100234.56;4882186;29;20451;-89
2023/08/11 07:03:48;;;;;;;29.58;16.10;;;;;;;22.10;75.32;100234.94;4896162;29;20101;-89
2023/08/11 07:06:15;;;;;;;31.65;13.85;;;;;;;21.98;74.58;100191.34;4895092;29;20037;-89
2023/08/11 07:08:42;;;;;;;28.48;14.63;;;;;;;22.31;74.08;100234.56;4882022;29;20057;-89
2023/08/11 07:11:08;;;;;;;26.33;13.38;;;;;;;22.33;73.33;100216.28;4880459;29;20029;-89
2023/08/11 07:13:34;;;;;;;25.70;13.70;;;;;;;22.21;74.04;100189.41;4863873;29;20049;-89
2023/08/11 07:16:01;;;;;;;28.95;14.80;;;;;;;22.41;72.75;100215.25;4897425;29;20219;-89
2023/08/11 07:18:28;;;;;;;23.08;13.07;;;;;;;22.32;71.70;100183.22;4863071;29;20059;-88
2023/08/11 07:20:54;;;;;;;27.13;12.73;;;;;;;22.44;72.36;100183.84;4851284;29;20052;-88
2023/08/11 07:23:20;;;;;;;18.23;12.23;;;;;;;22.64;72.32;100214.44;4849822;29;20049;-88
2023/08/11 07:25:46;;;;;;;22.63;12.82;;;;;;;22.75;71.23;100224.59;4873136;29;20052;-89
2023/08/11 07:28:14;;;;;;;22.55;12.73;;;;;;;22.73;71.01;100195.47;4896262;29;20100;-88
2023/08/11 07:30:59;;;;;;;73.68;14.57;;;;;;;22.99;70.59;100183.56;4882793;29;20187;-90
2023/08/11 07:33:27;;;;;;;25.05;12.88;;;;;;;23.21;70.39;100199.44;4893061;29;20061;-88
2023/08/11 07:35:53;;;;;;;21.35;11.50;;;;;;;23.35;69.17;100207.19;4865003;29;20117;-88
2023/08/11 07:38:20;;;;;;;17.73;11.57;;;;;;;23.31;67.83;100194.34;4893663;29;20056;-88
2023/08/11 07:40:47;;;;;;;22.42;12.43;;;;;;;23.58;68.69;100223.03;4864920;29;20048;-87
2023/08/11 07:43:16;;;;;;;17.65;11.43;;;;;;;23.63;68.36;100231.06;4893398;29;20068;-88
2023/08/11 07:45:42;;;;;;;;;;;;;;;23.69;67.92;100224.00;4849195;29;20088;-89
2023/08/11 07:48:09;;;;;;;18.80;11.50;;;;;;;23.73;68.05;100224.84;4908878;29;20382;-87
2023/08/11 07:50:37;;;;;;;31.25;11.70;;;;;;;23.83;67.71;100226.97;4890143;29;20438;-85
2023/08/11 07:53:03;;;;;;;71.53;13.45;;;;;;;23.77;67.67;100194.97;4916495;29;20172;-84
2023/08/11 07:55:29;;;;;;;19.30;11.30;;;;;;;23.89;67.69;100185.53;4890543;29;20247;-87
2023/08/11 07:57:56;;;;;;;30.52;11.75;;;;;;;24.12;66.67;100197.38;4898397;29;20135;-87
2023/08/11 08:00:25;;;;;;;25.55;11.60;;;;;;;24.18;66.78;100189.44;4912647;29;20107;-92
2023/08/11 08:02:54;;;;;;;24.58;13.10;;;;;;;24.00;66.71;100160.53;5002627;23;20064;-92
2023/08/11 08:05:21;;;;;;;32.78;14.02;;;;;;;23.88;66.60;100167.19;4880057;29;20134;-92
2023/08/11 08:08:06;;;;;;;;;;;;;;;23.93;65.56;100197.56;4925598;29;20035;-89
2023/08/11 08:10:33;;;;;;;48.95;13.38;;;;;;;23.60;65.97;100156.47;4943205;29;19919;-94
2023/08/11 08:13:09;;;;;;;24.15;12.77;;;;;;;23.63;65.67;100156.50;4916650;29;20040;-91
2023/08/11 08:15:44;;;;;;;29.73;12.98;;;;;;;23.54;66.03;100130.06;4920933;29;20051;-91
2023/08/11 08:18:10;;;;;;;24.77;12.50;;;;;;;23.85;66.36;100176.34;4893745;29;20066;-89
2023/08/11 08:20:36;;;;;;;30.00;15.18;;;;;;;23.74;66.41;100153.88;4902297;29;20043;-90
2023/08/11 08:23:03;;;;;;;40.88;15.25;;;;;;;24.13;66.47;100192.56;4902569;29;20112;-90
2023/08/11 08:25:31;;;;;;;29.13;14.70;;;;;;;23.96;65.87;100171.66;4940958;29;20044;-92
2023/08/11 08:28:02;;;;;;;24.88;13.25;;;;;;;23.84;65.72;100163.53;4915995;29;20032;-91
2023/08/11 08:30:28;;;;;;;24.35;13.57;;;;;;;23.83;65.90;100170.31;4901562;29;20048;-90
2023/08/11 08:32:54;;;;;;;24.92;14.13;;;;;;;23.59;66.12;100136.13;4901607;29;20035;-89
2023/08/11 08:35:22;;;;;;;23.02;14.52;;;;;;;24.03;66.30;100193.28;4922802;29;20078;-89
2023/08/11 08:37:50;;;;;;;20.23;13.10;;;;;;;23.73;66.08;100148.66;4929664;29;20039;-89
2023/08/11 08:40:19;;;;;;;27.65;13.80;;;;;;;23.94;66.71;100170.41;4940073;28;20123;-88
2023/08/11 08:42:46;;;;;;;27.35;16.40;;;;;;;23.70;68.64;100138.25;4907937;29;20042;-89
2023/08/11 08:45:14;;;;;;;;;;;;;;;24.06;69.74;100186.91;4917042;29;20039;-90
2023/08/11 08:47:46;;;;;;;30.02;15.20;;;;;;;23.74;70.84;100172.59;4922541;29;19946;-92
2023/08/11 08:50:33;;;;;;;27.52;15.73;;;;;;;23.70;70.79;100168.97;4916677;29;20044;-88
2023/08/11 08:53:06;;;;;;;26.85;16.75;;;;;;;23.64;72.68;100155.34;4899122;29;20040;-88
2023/08/11 08:55:33;;;;;;;37.85;16.73;;;;;;;23.40;72.11;100133.50;4939641;29;20047;-91
2023/08/11 08:58:03;;;;;;;30.35;15.75;;;;;;;23.57;71.73;100177.56;4920018;29;20059;-90
2023/08/11 09:01:14;;;;;;;36.22;16.83;;;;;;;23.44;71.68;100146.31;4929331;29;20052;-92
2023/08/11 09:03:41;;;;;;;33.30;17.27;;;;;;;23.94;71.03;100207.56;4969374;23;20079;-89
2023/08/11 09:06:12;;;;;;;27.92;16.02;;;;;;;23.79;70.23;100177.84;4917827;29;20052;-88
2023/08/11 09:08:40;;;;;;;35.97;16.45;;;;;;;23.82;70.29;100177.09;4892834;29;20056;-90
2023/08/11 09:11:08;;;;;;;29.35;16.63;;;;;;;23.92;70.62;100196.75;4863012;29;20040;-92
2023/08/11 09:14:09;;;;;;;28.98;15.52;;;;;;;23.93;70.97;100205.94;4908346;29;20059;-91
2023/08/11 09:17:12;;;;;;;32.58;16.25;;;;;;;23.51;70.73;100167.94;4930577;29;20036;-91
2023/08/11 09:31:56;;;;;;;23.45;15.40;;;;;;;23.55;71.01;100212.63;2913602;23;20306;-88
2023/08/11 09:34:48;;;;;;;28.23;15.18;;;;;;;23.57;71.02;100221.41;5224254;23;20075;-91
2023/08/11 09:40:26;;;;;;;24.70;15.60;;;;;;;23.46;71.19;100187.78;5046942;23;20067;-91
2023/08/11 09:43:39;;;;;;;32.33;16.23;;;;;;;23.28;71.83;100178.38;4926810;29;20315;-92
2023/08/11 11:12:40;;;;;;;38.67;16.55;;;;;;;23.88;70.37;100183.94;5018826;23;20469;-92
2023/08/11 11:15:08;;;;;;;34.83;16.67;;;;;;;23.76;70.52;100173.03;4897414;29;20072;-91
2023/08/11 11:17:38;;;;;;;71.53;18.45;;;;;;;23.87;70.81;100188.72;4905456;29;20036;-89
2023/08/11 11:20:06;;;;;;;31.27;18.52;;;;;;;23.60;70.49;100142.50;4919028;29;20053;-89
2023/08/11 11:22:32;;;;;;;32.15;18.27;;;;;;;23.76;70.68;100168.25;4904075;29;20036;-89
2023/08/11 11:25:21;;;;;;;36.05;18.45;;;;;;;23.92;70.50;100179.19;4912473;29;20017;-93
2023/08/11 11:27:49;;;;;;;38.28;17.92;;;;;;;23.87;70.59;100179.53;4898217;29;20072;-92
2023/08/11 11:30:20;;;;;;;26.23;17.55;;;;;;;23.89;70.78;100171.59;4932015;29;20036;-90
2023/08/11 11:33:09;;;;;;;41.42;18.75;;;;;;;24.13;69.71;100198.97;4898886;29;20044;-94
2023/08/11 11:35:58;;;;;;;35.78;17.60;;;;;;;24.00;69.77;100166.91;4907319;29;20053;-86
2023/08/11 11:39:28;;;;;;;47.30;19.83;;;;;;;24.11;69.94;100165.03;4904879;29;20028;-89
2023/08/11 11:42:18;;;;;;;31.90;17.23;;;;;;;24.05;69.91;100138.63;4906652;29;20458;-88
2023/08/11 11:44:46;;;;;;;34.55;20.13;;;;;;;24.18;69.88;100138.34;4914205;29;20054;-87
2023/08/11 11:47:33;;;;;;;27.85;15.68;;;;;;;24.23;69.68;100127.63;4914348;29;20028;-92
2023/08/11 11:50:05;;;;;;;40.45;17.73;;;;;;;24.20;68.75;100094.84;4916256;29;20051;-90
2023/08/11 11:52:36;;;;;;;58.97;21.70;;;;;;;24.71;68.15;100147.22;4915864;29;20048;-89
2023/08/11 11:55:03;;;;;;;38.20;20.23;;;;;;;25.22;67.49;100159.53;4874325;29;20111;-86
2023/08/11 11:57:30;;;;;;;35.90;18.20;;;;;;;25.62;66.35;100135.28;4906461;29;20092;-88
2023/08/11 11:59:57;;;;;;;37.83;18.65;;;;;;;25.97;64.67;100143.03;4894529;29;20055;-88
2023/08/11 12:02:28;;;;;;;40.22;20.70;;;;;;;26.03;63.78;100133.03;4880403;29;20108;-87
2023/08/11 12:04:56;;;;;;;39.40;17.58;;;;;;;26.18;64.28;100122.63;4903442;29;20060;-89
2023/08/11 12:07:36;;;;;;;51.08;17.00;;;;;;;26.52;63.49;100130.66;4928995;29;20044;-87
2023/08/11 12:10:04;;;;;;;56.70;17.15;;;;;;;26.59;63.08;100125.03;4907673;29;20043;-86
2023/08/11 12:12:31;;;;;;;25.77;15.73;;;;;;;26.58;62.40;100132.66;4922051;29;20076;-87
2023/08/11 12:15:05;;;;;;;37.28;19.65;;;;;;;26.48;62.86;100122.25;4873213;29;20040;-86
2023/08/11 12:17:36;;;;;;;33.78;18.15;;;;;;;26.42;62.08;100118.22;4908428;29;20087;-87
2023/08/11 12:20:05;;;;;;;31.60;17.75;;;;;;;26.36;62.34;100117.03;4874878;29;20085;-89
2023/08/11 12:22:31;;;;;;;40.53;18.15;;;;;;;26.18;63.54;100122.63;4879851;29;20040;-86
2023/08/11 12:24:57;;;;;;;32.42;16.98;;;;;;;26.07;63.06;100122.63;4885078;29;20498;-87
2023/08/11 12:27:23;;;;;;;35.20;17.50;;;;;;;26.01;63.18;100118.59;4889868;29;20068;-88
2023/08/11 12:29:51;;;;;;;42.97;19.70;;;;;;;25.81;63.58;100086.56;4894645;29;20048;-87
2023/08/11 12:32:17;;;;;;;43.42;18.05;;;;;;;25.95;64.25;100121.00;4908816;29;20603;-88
2023/08/11 12:34:43;;;;;;;36.05;19.60;;;;;;;25.70;64.83;100092.13;4870499;29;20071;-88
2023/08/11 12:37:14;;;;;;;34.75;19.83;;;;;;;25.77;65.00;100104.13;4897934;29;20040;-88
2023/08/11 12:39:40;;;;;;;59.05;21.23;;;;;;;25.80;65.40;100113.78;4901461;29;20048;-88
2023/08/11 12:42:07;;;;;;;86.82;32.65;;;;;;;25.66;65.17;100102.50;4892345;29;20051;-87
2023/08/11 12:44:33;;;;;;;81.20;29.48;;;;;;;25.70;65.85;100112.53;4898568;29;20040;-89
2023/08/11 12:47:01;;;;;;;42.72;20.15;;;;;;;25.54;65.44;100093.28;4904218;29;20068;-90
2023/08/11 12:49:27;;;;;;;40.08;20.10;;;;;;;25.48;66.00;100096.84;4919487;29;20048;-88
2023/08/11 12:51:55;;;;;;;37.67;20.42;;;;;;;25.24;65.74;100065.59;4911943;29;20501;-89
2023/08/11 12:54:21;;;;;;;36.95;18.80;;;;;;;25.46;66.17;100104.84;4906656;29;20044;-86
2023/08/11 12:56:47;;;;;;;37.42;19.80;;;;;;;25.29;66.52;100079.19;4925520;29;20048;-88
2023/08/11 12:59:14;;;;;;;37.80;19.45;;;;;;;25.23;66.99;100082.75;4902907;29;20048;-87
2023/08/11 13:01:45;;;;;;;37.50;18.73;;;;;;;25.33;66.77;100096.03;4896778;29;20072;-86
2023/08/11 13:04:19;;;;;;;32.22;18.67;;;;;;;25.37;67.38;100096.03;4910978;29;20068;-89
2023/08/11 13:06:55;;;;;;;93.38;19.85;;;;;;;25.37;67.57;100090.44;4914949;29;20064;-90